createdAt,value
2019-06-08T00:02:50.372Z,16.90
2019-06-08T00:07:52.839Z,16.67
2019-06-08T00:12:55.297Z,16.56
2019-06-08T00:17:59.436Z,16.62
2019-06-08T00:23:00.233Z,16.55
2019-06-08T00:28:02.690Z,16.56
2019-06-08T00:33:05.147Z,16.50
2019-06-08T00:38:07.608Z,16.58
2019-06-08T00:43:10.117Z,16.45
2019-06-08T00:48:12.573Z,16.57
2019-06-08T00:53:15.114Z,16.70
2019-06-08T00:58:18.075Z,16.78
2019-06-08T01:03:20.048Z,16.78
2019-06-08T01:08:23.812Z,16.84
2019-06-08T01:13:25.008Z,16.81
2019-06-08T01:18:27.524Z,16.64
2019-06-08T01:23:29.911Z,16.44
2019-06-08T01:28:32.392Z,16.44
2019-06-08T01:33:34.963Z,16.33
2019-06-08T01:38:37.423Z,16.58
2019-06-08T01:43:39.890Z,16.82
2019-06-08T01:48:42.357Z,16.90
2019-06-08T01:53:44.830Z,16.98
2019-06-08T01:58:47.289Z,17.11
2019-06-08T02:03:49.746Z,17.18
2019-06-08T02:08:52.204Z,17.28
2019-06-08T02:13:54.661Z,17.32
2019-06-08T02:18:57.175Z,17.30
2019-06-08T02:23:59.633Z,17.39
2019-06-08T02:29:02.158Z,17.47
2019-06-08T02:34:05.902Z,17.54
2019-06-08T02:39:07.079Z,17.50
2019-06-08T02:44:09.550Z,17.55
2019-06-08T02:49:12.011Z,17.59
2019-06-08T02:54:14.472Z,17.51
2019-06-08T02:59:16.960Z,17.47
2019-06-08T03:04:19.436Z,17.28
2019-06-08T03:09:21.906Z,17.14
2019-06-08T03:14:27.001Z,17.00
2019-06-08T03:19:31.207Z,17.01
2019-06-08T03:24:32.502Z,17.11
2019-06-08T03:29:35.080Z,17.18
2019-06-08T03:34:45.821Z,17.12
2019-06-08T03:39:41.219Z,17.24
2019-06-08T03:44:42.879Z,17.19
2019-06-08T03:49:54.874Z,17.16
2019-06-08T03:54:47.111Z,17.07
2019-06-08T03:59:49.309Z,17.03
2019-06-08T04:04:51.776Z,17.00
2019-06-08T04:09:54.250Z,17.22
2019-06-08T04:14:56.710Z,17.17
2019-06-08T04:20:10.619Z,17.18
2019-06-08T04:25:01.649Z,17.26
2019-06-08T04:30:06.769Z,17.67
2019-06-08T04:35:09.446Z,18.02
2019-06-08T04:40:11.850Z,18.33
2019-06-08T04:45:14.324Z,18.18
2019-06-08T04:50:23.518Z,18.22
2019-06-08T04:55:19.361Z,18.93
2019-06-08T05:00:21.834Z,19.05
2019-06-08T05:05:24.294Z,19.12
2019-06-08T05:10:26.751Z,18.91
2019-06-08T05:15:29.223Z,19.17
2019-06-08T05:20:38.940Z,19.19
2019-06-08T05:25:34.220Z,19.18
2019-06-08T05:30:36.683Z,19.15
2019-06-08T05:35:39.472Z,19.24
2019-06-08T05:40:41.624Z,19.50
2019-06-08T05:45:44.095Z,19.80
2019-06-08T05:51:01.418Z,20.18
2019-06-08T05:55:50.180Z,22.63
2019-06-08T06:00:51.500Z,25.65
2019-06-08T06:05:53.965Z,26.83
2019-06-08T06:10:56.428Z,27.11
2019-06-08T06:15:58.898Z,26.13
2019-06-08T06:21:10.777Z,26.64
2019-06-08T06:26:03.854Z,26.74
2019-06-08T06:31:06.298Z,26.56
2019-06-08T06:36:08.771Z,26.40
2019-06-08T06:41:11.224Z,26.51
2019-06-08T06:46:13.848Z,26.61
2019-06-08T06:51:25.640Z,27.20
2019-06-08T06:56:18.795Z,27.12
2019-06-08T07:01:21.262Z,27.14
2019-06-08T07:06:23.736Z,26.35
2019-06-08T07:11:26.208Z,26.98
2019-06-08T07:16:28.669Z,26.52
2019-06-08T07:21:41.207Z,26.15
2019-06-08T07:26:33.630Z,26.65
2019-06-08T07:31:36.087Z,27.09
2019-06-08T07:36:38.562Z,26.87
2019-06-08T07:41:41.025Z,27.18
2019-06-08T07:46:43.500Z,29.15
2019-06-08T07:51:58.764Z,28.38
2019-06-08T07:56:49.818Z,27.97
2019-06-08T08:01:51.893Z,27.14
2019-06-08T08:06:54.581Z,27.33
2019-06-08T08:11:57.037Z,27.35
2019-06-08T08:16:59.109Z,27.52
2019-06-08T08:22:16.338Z,27.36
2019-06-08T08:27:03.931Z,27.89
2019-06-08T08:32:07.559Z,29.77
2019-06-08T08:37:09.650Z,30.37
2019-06-08T08:42:10.744Z,27.66
2019-06-08T08:47:13.208Z,27.33
2019-06-08T08:52:17.475Z,36.63
2019-06-08T08:57:18.268Z,48.05
2019-06-08T09:02:21.362Z,53.39
2019-06-08T09:07:23.023Z,58.66
2019-06-08T09:12:27.587Z,56.03
2019-06-08T09:17:28.089Z,62.38
2019-06-08T09:22:31.222Z,45.97
2019-06-08T09:27:32.869Z,46.26
2019-06-08T09:32:38.008Z,58.84
2019-06-08T09:37:37.849Z,60.29
2019-06-08T09:42:40.266Z,58.85
2019-06-08T09:47:42.720Z,54.73
2019-06-08T09:52:47.725Z,60.55
2019-06-08T09:57:48.541Z,58.51
2019-06-08T10:02:50.122Z,62.36
2019-06-08T10:07:52.587Z,57.42
2019-06-08T10:12:56.975Z,57.17
2019-06-08T10:17:58.826Z,48.80
2019-06-08T10:23:03.266Z,41.75
2019-06-08T10:28:07.768Z,38.73
2019-06-08T10:33:07.115Z,37.99
2019-06-08T10:38:11.655Z,35.98
2019-06-08T10:43:11.363Z,34.94
2019-06-08T10:48:12.324Z,33.89
2019-06-08T10:53:16.657Z,33.23
2019-06-08T10:58:19.351Z,32.87
2019-06-08T11:03:19.849Z,33.09
2019-06-08T11:08:22.314Z,32.32
2019-06-08T11:13:24.782Z,31.17
2019-06-08T11:18:28.678Z,31.38
2019-06-08T11:23:29.735Z,32.36
2019-06-08T11:28:32.187Z,32.42
2019-06-08T11:33:34.650Z,32.50
2019-06-08T11:38:38.229Z,31.57
2019-06-08T11:43:39.622Z,31.39
2019-06-08T11:48:42.108Z,31.52
2019-06-08T11:53:44.609Z,31.19
2019-06-08T11:58:48.576Z,31.71
2019-06-08T12:03:49.501Z,32.52
2019-06-08T12:08:52.003Z,32.63
2019-06-08T12:13:54.661Z,32.49
2019-06-08T12:18:58.637Z,32.66
2019-06-08T12:23:59.607Z,34.73
2019-06-08T12:29:02.115Z,33.26
2019-06-08T12:34:05.184Z,34.39
2019-06-08T12:39:07.903Z,34.10
2019-06-08T12:44:12.294Z,34.08
2019-06-08T12:49:13.210Z,41.05
2019-06-08T12:54:14.470Z,39.94
2019-06-08T12:59:22.445Z,39.16
2019-06-08T13:04:23.361Z,39.25
2019-06-08T13:09:21.882Z,37.62
2019-06-08T13:14:24.360Z,39.08
2019-06-08T13:19:27.619Z,38.88
2019-06-08T13:24:29.286Z,39.16
2019-06-08T13:29:31.741Z,39.13
2019-06-08T13:34:34.373Z,35.68
2019-06-08T13:39:38.765Z,37.16
2019-06-08T13:44:39.315Z,37.43
2019-06-08T13:49:41.776Z,35.93
2019-06-08T13:54:44.266Z,34.83
2019-06-08T13:59:48.438Z,32.99
2019-06-08T14:04:49.285Z,31.52
2019-06-08T14:09:51.697Z,32.37
2019-06-08T14:14:54.181Z,31.14
2019-06-08T14:19:58.694Z,29.92
2019-06-08T14:24:59.125Z,30.26
2019-06-08T14:30:01.588Z,29.82
2019-06-08T14:35:04.064Z,28.92
2019-06-08T14:40:08.151Z,28.40
2019-06-08T14:45:10.894Z,27.95
2019-06-08T14:50:11.467Z,27.58
2019-06-08T14:55:13.928Z,27.44
2019-06-08T15:00:18.840Z,26.67
2019-06-08T15:05:19.920Z,26.43
2019-06-08T15:10:21.745Z,26.72
2019-06-08T15:15:23.969Z,27.05
2019-06-08T15:20:26.435Z,26.88
2019-06-08T15:25:30.008Z,25.97
2019-06-08T15:30:32.779Z,26.34
2019-06-08T15:35:33.843Z,26.78
2019-06-08T15:40:37.911Z,26.98
2019-06-08T15:45:38.801Z,26.78
2019-06-08T15:50:41.269Z,26.48
2019-06-08T15:55:43.738Z,26.41
2019-06-08T16:00:46.189Z,26.08
2019-06-08T16:05:48.653Z,26.07
2019-06-08T16:10:51.136Z,25.79
2019-06-08T16:15:53.654Z,25.72
2019-06-08T16:20:56.103Z,25.46
2019-06-08T16:25:58.587Z,25.38
2019-06-08T16:31:01.066Z,25.34
2019-06-08T16:36:03.557Z,25.23
2019-06-08T16:41:06.030Z,25.11
2019-06-08T16:46:08.503Z,25.04
2019-06-08T16:51:10.975Z,24.93
2019-06-08T16:56:13.565Z,24.85
2019-06-08T17:01:16.025Z,24.79
2019-06-08T17:06:18.503Z,24.64
2019-06-08T17:11:20.978Z,24.50
2019-06-08T17:16:23.451Z,24.33
2019-06-08T17:21:25.902Z,24.30
2019-06-08T17:26:28.390Z,24.19
2019-06-08T17:31:31.085Z,24.11
2019-06-08T17:36:34.289Z,23.95
2019-06-08T17:41:36.099Z,23.81
2019-06-08T17:46:39.144Z,23.68
2019-06-08T17:51:41.795Z,23.52
2019-06-08T17:56:43.515Z,23.38
2019-06-08T18:01:45.717Z,23.19
2019-06-08T18:06:48.176Z,23.09
2019-06-08T18:11:50.646Z,22.97
2019-06-08T18:16:53.113Z,22.82
2019-06-08T18:22:02.923Z,22.64
2019-06-08T18:26:58.549Z,22.61
2019-06-08T18:32:00.525Z,22.56
2019-06-08T18:37:03.057Z,22.38
2019-06-08T18:42:05.463Z,22.23
2019-06-08T18:47:07.941Z,22.09
2019-06-08T18:52:10.439Z,21.88
2019-06-08T18:57:12.909Z,21.76
2019-06-08T19:02:17.897Z,21.50
2019-06-08T19:07:18.153Z,21.23
2019-06-08T19:12:20.362Z,21.00
2019-06-08T19:17:22.827Z,20.70
2019-06-08T19:22:25.304Z,20.55
2019-06-08T19:27:27.835Z,20.44
2019-06-08T19:32:30.238Z,20.35
2019-06-08T19:37:32.924Z,20.08
2019-06-08T19:42:40.592Z,19.79
2019-06-08T19:47:38.389Z,19.57
2019-06-08T19:52:43.754Z,19.35
2019-06-08T19:57:43.350Z,19.22
2019-06-08T20:02:47.970Z,19.08
2019-06-08T20:07:47.599Z,19.00
2019-06-08T20:12:50.956Z,18.78
2019-06-08T20:17:52.617Z,18.67
2019-06-08T20:22:55.099Z,18.49
2019-06-08T20:27:58.737Z,18.43
2019-06-08T20:33:00.062Z,18.39
2019-06-08T20:38:02.551Z,18.38
2019-06-08T20:43:07.031Z,18.30
2019-06-08T20:48:07.521Z,17.99
2019-06-08T20:53:10.038Z,17.69
2019-06-08T20:58:12.466Z,17.63
2019-06-08T21:03:17.406Z,17.78
2019-06-08T21:08:17.568Z,17.84
2019-06-08T21:13:19.890Z,17.52
2019-06-08T21:18:22.354Z,17.31
2019-06-08T21:23:24.824Z,17.46
2019-06-08T21:28:28.013Z,17.10
2019-06-08T21:33:29.772Z,16.81
2019-06-08T21:38:32.239Z,17.05
2019-06-08T21:43:37.287Z,17.10
2019-06-08T21:48:38.150Z,16.83
2019-06-08T21:53:39.654Z,16.67
2019-06-08T21:58:42.117Z,16.53
2019-06-08T22:03:47.046Z,16.60
2019-06-08T22:08:48.145Z,16.53
2019-06-08T22:13:51.139Z,16.36
2019-06-08T22:18:52.981Z,16.12
2019-06-08T22:23:55.862Z,16.09
2019-06-08T22:28:59.282Z,15.92
2019-06-08T22:34:02.089Z,15.84
2019-06-08T22:39:02.700Z,15.93
2019-06-08T22:44:04.389Z,15.75
2019-06-08T22:49:08.003Z,15.70
2019-06-08T22:54:09.385Z,15.72
2019-06-08T22:59:11.861Z,15.65
2019-06-08T23:04:14.375Z,15.67
2019-06-08T23:09:17.999Z,15.69
2019-06-08T23:14:19.310Z,15.79
2019-06-08T23:19:21.784Z,15.60
2019-06-08T23:24:24.247Z,15.25
2019-06-08T23:29:27.368Z,15.22
2019-06-08T23:34:29.178Z,15.29
2019-06-08T23:39:31.654Z,15.15
2019-06-08T23:44:34.119Z,15.02
2019-06-08T23:49:38.019Z,14.85
2019-06-08T23:54:39.046Z,14.65
2019-06-08T23:59:41.497Z,14.72
